createdAt,value
2017-12-11T00:00:46.798Z,2.02
2017-12-11T00:01:55.621Z,2.02
2017-12-11T00:03:04.445Z,2.03
2017-12-11T00:04:13.269Z,1.93
2017-12-11T00:05:22.143Z,2.03
2017-12-11T00:06:30.968Z,2.07
2017-12-11T00:07:39.789Z,1.95
2017-12-11T00:08:48.618Z,1.9
2017-12-11T00:09:57.440Z,1.99
2017-12-11T00:11:06.264Z,2
2017-12-11T00:12:15.088Z,1.99
2017-12-11T00:13:23.910Z,1.98
2017-12-11T00:14:33.009Z,1.99
2017-12-11T00:15:41.835Z,2.05
2017-12-11T00:16:51.077Z,2.05
2017-12-11T00:17:59.899Z,2.05
2017-12-11T00:19:08.721Z,2
2017-12-11T00:20:17.548Z,1.95
2017-12-11T00:21:26.369Z,2.06
2017-12-11T00:22:35.621Z,2.03
2017-12-11T00:23:44.445Z,2.12
2017-12-11T00:24:53.266Z,2.17
2017-12-11T00:26:02.090Z,2.12
2017-12-11T00:27:10.911Z,2.02
2017-12-11T00:28:19.787Z,2.02
2017-12-11T00:29:28.611Z,2.14
2017-12-11T00:30:37.434Z,2.3
2017-12-11T00:31:46.258Z,2.2
2017-12-11T00:32:55.351Z,2.2
2017-12-11T00:34:04.334Z,2.28
2017-12-11T00:35:13.435Z,2.12
2017-12-11T00:36:22.258Z,1.99
2017-12-11T00:37:31.081Z,2.02
2017-12-11T00:38:39.906Z,1.93
2017-12-11T00:39:48.928Z,2.23
2017-12-11T00:40:57.752Z,2
2017-12-11T00:42:06.575Z,1.91
2017-12-11T00:43:15.397Z,2.06
2017-12-11T00:44:24.221Z,2.03
2017-12-11T00:45:33.044Z,1.93
2017-12-11T00:46:41.868Z,1.93
2017-12-11T00:47:50.691Z,2.03
2017-12-11T00:48:59.515Z,2.05
2017-12-11T00:50:08.340Z,1.99
2017-12-11T00:51:17.264Z,2.06
2017-12-11T00:52:26.086Z,1.95
2017-12-11T00:53:34.907Z,2.07
2017-12-11T00:54:44.006Z,2.06
2017-12-11T00:55:52.829Z,2.03
2017-12-11T00:57:01.751Z,2
2017-12-11T00:58:10.577Z,1.79
2017-12-11T00:59:19.402Z,1.8
2017-12-11T01:00:28.227Z,1.95
2017-12-11T01:01:37.050Z,1.84
2017-12-11T01:02:45.875Z,2
2017-12-11T01:03:54.701Z,2.07
2017-12-11T01:05:03.524Z,1.83
2017-12-11T01:06:12.344Z,1.73
2017-12-11T01:07:21.446Z,1.83
2017-12-11T01:08:30.412Z,1.77
2017-12-11T01:09:39.237Z,1.83
2017-12-11T01:10:48.061Z,1.8
2017-12-11T01:11:56.884Z,1.99
2017-12-11T01:13:05.708Z,2.07
2017-12-11T01:14:14.530Z,2.03
2017-12-11T01:15:23.622Z,2.27
2017-12-11T01:16:32.723Z,2.17
2017-12-11T01:17:41.598Z,1.95
2017-12-11T01:18:50.419Z,1.91
2017-12-11T01:19:59.292Z,1.88
2017-12-11T01:21:08.127Z,1.73
2017-12-11T01:22:16.950Z,2.03
2017-12-11T01:23:26.048Z,1.88
2017-12-11T01:24:34.868Z,1.98
2017-12-11T01:25:44.371Z,1.98
2017-12-11T01:26:53.193Z,1.8
2017-12-11T01:28:02.013Z,1.84
2017-12-11T01:29:11.112Z,1.84
2017-12-11T01:30:19.936Z,1.69
2017-12-11T01:31:28.758Z,1.66
2017-12-11T01:32:37.580Z,1.4
2017-12-11T01:33:46.404Z,1.79
2017-12-11T01:34:55.223Z,1.79
2017-12-11T01:36:04.044Z,1.84
2017-12-11T01:37:12.917Z,1.58
2017-12-11T01:38:21.739Z,1.45
2017-12-11T01:39:30.563Z,1.44
2017-12-11T01:40:39.717Z,1.24
2017-12-11T01:41:48.542Z,1.23
2017-12-11T01:42:57.411Z,1.32
2017-12-11T01:44:06.234Z,1.5
2017-12-11T01:45:15.059Z,1.55
2017-12-11T01:46:24.160Z,1.27
2017-12-11T01:47:32.976Z,1.18
2017-12-11T01:48:42.229Z,1.59
2017-12-11T01:49:51.047Z,1.65
2017-12-11T01:50:59.869Z,1.4
2017-12-11T01:52:08.696Z,1.23
2017-12-11T01:53:17.516Z,1.27
2017-12-11T01:54:26.340Z,1.16
2017-12-11T01:55:35.166Z,1.44
2017-12-11T01:56:44.265Z,1.36
2017-12-11T01:57:53.086Z,1.24
2017-12-11T01:59:02.455Z,1.4
2017-12-11T02:00:11.276Z,1.51
2017-12-11T02:01:20.099Z,1.44
2017-12-11T02:02:28.923Z,1.14
2017-12-11T02:03:37.750Z,1.51
2017-12-11T02:04:46.845Z,1.4
2017-12-11T02:05:55.768Z,1.47
2017-12-11T02:07:04.589Z,2.16
2017-12-11T02:08:13.411Z,1.54
2017-12-11T02:09:22.506Z,1.79
2017-12-11T02:10:31.329Z,1.41
2017-12-11T02:11:40.150Z,1.11
2017-12-11T02:12:48.974Z,1.16
2017-12-11T02:13:57.796Z,1.29
2017-12-11T02:15:06.897Z,1.79
2017-12-11T02:16:15.718Z,1.45
2017-12-11T02:17:24.638Z,1.41
2017-12-11T02:18:33.460Z,1.09
2017-12-11T02:19:42.837Z,1.45
2017-12-11T02:20:51.658Z,1.18
2017-12-11T02:22:00.481Z,1.02
2017-12-11T02:23:09.352Z,0.93
2017-12-11T02:24:18.175Z,0.91
2017-12-11T02:25:26.999Z,1.11
2017-12-11T02:26:35.822Z,1.12
2017-12-11T02:27:44.644Z,1.09
2017-12-11T02:28:53.892Z,1.14
2017-12-11T02:30:02.714Z,0.96
2017-12-11T02:31:11.534Z,1.08
2017-12-11T02:32:20.361Z,1.06
2017-12-11T02:33:29.182Z,1.12
2017-12-11T02:34:38.403Z,1.27
2017-12-11T02:35:47.223Z,1.66
2017-12-11T02:36:56.325Z,1.2
2017-12-11T02:38:05.145Z,1.05
2017-12-11T02:39:13.968Z,1.29
2017-12-11T02:40:23.090Z,1.06
2017-12-11T02:41:31.915Z,1.36
2017-12-11T02:42:41.017Z,1.11
2017-12-11T02:43:49.843Z,0.94
2017-12-11T02:44:58.944Z,0.87
2017-12-11T02:46:07.865Z,0.84
2017-12-11T02:47:16.963Z,0.93
2017-12-11T02:48:26.060Z,0.91
2017-12-11T02:49:34.884Z,1.65
2017-12-11T02:50:43.710Z,1.73
2017-12-11T02:51:53.102Z,1.58
2017-12-11T02:53:01.924Z,1.42
2017-12-11T02:54:10.749Z,1.3
2017-12-11T02:55:19.846Z,1.66
2017-12-11T02:56:28.667Z,1.42
2017-12-11T02:57:37.542Z,1.11
2017-12-11T02:58:46.415Z,1.06
2017-12-11T02:59:55.465Z,1.32
2017-12-11T03:01:04.283Z,1.47
2017-12-11T03:02:13.105Z,1.91
2017-12-11T03:03:21.926Z,1.45
2017-12-11T03:04:30.747Z,1.48
2017-12-11T03:05:39.569Z,1.23
2017-12-11T03:06:48.391Z,1.73
2017-12-11T03:07:57.212Z,1.48
2017-12-11T03:09:06.085Z,1.55
2017-12-11T03:10:14.908Z,1.59
2017-12-11T03:11:23.728Z,1.62
2017-12-11T03:12:32.553Z,1.42
2017-12-11T03:13:41.376Z,1.41
2017-12-11T03:14:50.627Z,1.86
2017-12-11T03:15:59.450Z,1.23
2017-12-11T03:17:08.270Z,1.55
2017-12-11T03:18:17.092Z,1.26
2017-12-11T03:19:25.914Z,1.42
2017-12-11T03:20:34.836Z,1.41
2017-12-11T03:21:43.657Z,1.66
2017-12-11T03:22:52.480Z,1.62
2017-12-11T03:24:01.301Z,1.68
2017-12-11T03:25:10.122Z,1.9
2017-12-11T03:26:19.345Z,1.7
2017-12-11T03:27:28.167Z,1.47
2017-12-11T03:28:36.988Z,1.44
2017-12-11T03:29:45.811Z,1.58
2017-12-11T03:30:54.641Z,1.98
2017-12-11T03:32:03.612Z,1.72
2017-12-11T03:33:12.431Z,1.52
2017-12-11T03:34:21.253Z,1.42
2017-12-11T03:35:30.076Z,1.42
2017-12-11T03:36:38.896Z,1.24
2017-12-11T03:37:48.018Z,1.18
2017-12-11T03:38:56.839Z,1.14
2017-12-11T03:40:05.933Z,1.41
2017-12-11T03:41:14.755Z,1.84
2017-12-11T03:42:23.574Z,1.45
2017-12-11T03:43:32.695Z,1.32
2017-12-11T03:44:41.514Z,1.32
2017-12-11T03:45:50.337Z,1.3
2017-12-11T03:46:59.162Z,1.45
2017-12-11T03:48:07.984Z,1.29
2017-12-11T03:49:16.807Z,1.14
2017-12-11T03:50:25.629Z,1.08
2017-12-11T03:51:34.450Z,1
2017-12-11T03:52:43.274Z,1.11
2017-12-11T03:53:52.095Z,1.04
2017-12-11T03:55:01.065Z,1.04
2017-12-11T03:56:09.888Z,1
2017-12-11T03:57:18.712Z,1.16
2017-12-11T03:58:27.531Z,1.16
2017-12-11T03:59:36.630Z,1.55
2017-12-11T04:00:45.603Z,1.27
2017-12-11T04:01:54.428Z,1.36
2017-12-11T04:03:03.251Z,1.37
2017-12-11T04:04:12.074Z,1.41
2017-12-11T04:05:21.168Z,1.47
2017-12-11T04:06:30.264Z,1.48
2017-12-11T04:07:39.061Z,1.4
2017-12-11T04:08:47.883Z,1.14
2017-12-11T04:09:56.703Z,1.15
2017-12-11T04:11:05.528Z,1.06
2017-12-11T04:12:14.347Z,1.02
2017-12-11T04:13:23.169Z,1.04
2017-12-11T04:14:31.992Z,0.91
2017-12-11T04:15:40.813Z,1.44
2017-12-11T04:16:49.635Z,1.63
2017-12-11T04:17:58.557Z,1.16
2017-12-11T04:19:07.382Z,1.15
2017-12-11T04:20:16.205Z,0.98
2017-12-11T04:21:25.027Z,0.98
2017-12-11T04:22:33.847Z,1.11
2017-12-11T04:23:42.669Z,1
2017-12-11T04:24:51.492Z,1.09
2017-12-11T04:26:00.313Z,1.05
2017-12-11T04:27:09.135Z,0.93
2017-12-11T04:28:18.232Z,1.09
2017-12-11T04:29:27.982Z,1.22
2017-12-11T04:30:36.803Z,0.98
2017-12-11T04:31:45.624Z,0.96
2017-12-11T04:32:54.446Z,1.08
2017-12-11T04:34:03.268Z,0.94
2017-12-11T04:35:12.364Z,0.9
2017-12-11T04:36:21.189Z,0.87
2017-12-11T04:37:30.051Z,1.09
2017-12-11T04:38:38.832Z,1.16
2017-12-11T04:39:47.654Z,1.06
2017-12-11T04:40:56.524Z,0.97
2017-12-11T04:42:05.349Z,1.3
2017-12-11T04:43:14.176Z,1.09
2017-12-11T04:44:22.992Z,1.02
2017-12-11T04:45:31.810Z,1.41
2017-12-11T04:46:40.691Z,1.27
2017-12-11T04:47:49.511Z,1.22
2017-12-11T04:48:58.335Z,1.08
2017-12-11T04:50:07.433Z,1.18
2017-12-11T04:51:16.528Z,1.24
2017-12-11T04:52:25.450Z,1.52
2017-12-11T04:53:34.272Z,1.47
2017-12-11T04:54:43.094Z,1.45
2017-12-11T04:55:51.916Z,1.5
2017-12-11T04:57:00.737Z,1.42
2017-12-11T04:58:09.882Z,1.36
2017-12-11T04:59:18.706Z,1.24
2017-12-11T05:00:27.526Z,1.45
2017-12-11T05:01:36.347Z,1.37
2017-12-11T05:02:45.171Z,1.51
2017-12-11T05:03:54.042Z,1.48
2017-12-11T05:05:03.144Z,1.32
2017-12-11T05:06:11.967Z,1.26
2017-12-11T05:07:20.786Z,1.26
2017-12-11T05:08:29.883Z,1.2
2017-12-11T05:09:38.805Z,1.14
2017-12-11T05:10:47.625Z,1.14
2017-12-11T05:11:56.448Z,1.15
2017-12-11T05:13:05.550Z,1.16
2017-12-11T05:14:14.376Z,1.18
2017-12-11T05:15:23.246Z,1.2
2017-12-11T05:16:32.070Z,1.16
2017-12-11T05:17:40.892Z,1.18
2017-12-11T05:18:49.711Z,1.27
2017-12-11T05:19:58.545Z,1.23
2017-12-11T05:21:07.512Z,1.5
2017-12-11T05:22:16.339Z,1.47
2017-12-11T05:23:25.159Z,1.48
2017-12-11T05:24:34.254Z,1.42
2017-12-11T05:25:43.079Z,1.42
2017-12-11T05:26:52.051Z,1.63
2017-12-11T05:28:00.874Z,1.65
2017-12-11T05:29:09.698Z,1.58
2017-12-11T05:30:18.524Z,1.42
2017-12-11T05:31:27.895Z,1.34
2017-12-11T05:32:36.716Z,1.37
2017-12-11T05:33:45.544Z,1.24
2017-12-11T05:34:54.367Z,1.18
2017-12-11T05:36:03.191Z,1.2
2017-12-11T05:37:12.014Z,1.15
2017-12-11T05:38:20.868Z,1.11
2017-12-11T05:39:29.663Z,1.08
2017-12-11T05:40:38.485Z,1.26
2017-12-11T05:41:47.310Z,1.3
2017-12-11T05:42:56.404Z,1.18
2017-12-11T05:44:05.227Z,1.12
2017-12-11T05:45:14.050Z,1.2
2017-12-11T05:46:22.873Z,1.06
2017-12-11T05:47:31.693Z,1.02
2017-12-11T05:48:40.516Z,1.12
2017-12-11T05:49:49.616Z,1.04
2017-12-11T05:50:58.440Z,1.12
2017-12-11T05:52:07.541Z,1.09
2017-12-11T05:53:16.364Z,1.09
2017-12-11T05:54:25.184Z,1.09
2017-12-11T05:55:34.006Z,1.47
2017-12-11T05:56:42.831Z,1.3
2017-12-11T05:57:51.653Z,1.23
2017-12-11T05:59:00.476Z,1.27
2017-12-11T06:00:09.305Z,1.15
2017-12-11T06:01:18.129Z,1.14
2017-12-11T06:02:26.953Z,1.12
2017-12-11T06:03:35.780Z,1.09
2017-12-11T06:04:44.603Z,1.3
2017-12-11T06:05:53.426Z,1.09
2017-12-11T06:07:02.526Z,1.09
2017-12-11T06:08:11.348Z,1.08
2017-12-11T06:09:20.220Z,1.14
2017-12-11T06:10:29.045Z,1.02
2017-12-11T06:11:37.869Z,1.08
2017-12-11T06:12:46.692Z,0.98
2017-12-11T06:13:55.516Z,0.98
2017-12-11T06:15:04.490Z,1.04
2017-12-11T06:16:13.313Z,1.15
2017-12-11T06:17:22.134Z,1.08
2017-12-11T06:18:30.957Z,1.06
2017-12-11T06:19:39.781Z,1.11
2017-12-11T06:20:48.602Z,1.3
2017-12-11T06:21:57.425Z,1.24
2017-12-11T06:23:06.248Z,1.18
2017-12-11T06:24:15.069Z,1.14
2017-12-11T06:25:24.169Z,1.12
2017-12-11T06:26:33.142Z,1.2
2017-12-11T06:27:42.242Z,1.16
2017-12-11T06:28:51.064Z,1.15
2017-12-11T06:29:59.890Z,0.96
2017-12-11T06:31:08.713Z,1
2017-12-11T06:32:17.958Z,0.98
2017-12-11T06:33:26.781Z,1
2017-12-11T06:34:35.607Z,1.09
2017-12-11T06:35:44.430Z,0.91
2017-12-11T06:36:53.254Z,0.91
2017-12-11T06:38:02.376Z,0.91
2017-12-11T06:39:11.195Z,0.94
2017-12-11T06:40:20.018Z,1
2017-12-11T06:41:28.842Z,0.91
2017-12-11T06:42:37.664Z,0.86
2017-12-11T06:43:46.787Z,0.9
2017-12-11T06:44:55.884Z,0.88
2017-12-11T06:46:04.706Z,0.94
2017-12-11T06:47:13.530Z,0.88
2017-12-11T06:48:22.356Z,0.8
2017-12-11T06:49:31.478Z,0.8
2017-12-11T06:50:40.303Z,0.8
2017-12-11T06:51:49.397Z,0.88
2017-12-11T06:52:58.220Z,0.93
2017-12-11T06:54:07.053Z,0.87
2017-12-11T06:55:16.197Z,0.88
2017-12-11T06:56:25.021Z,0.86
2017-12-11T06:57:33.844Z,0.93
2017-12-11T06:58:42.667Z,0.88
2017-12-11T06:59:51.490Z,0.94
2017-12-11T07:01:00.463Z,1
2017-12-11T07:02:09.288Z,1.02
2017-12-11T07:03:18.113Z,1.04
2017-12-11T07:04:26.938Z,1.05
2017-12-11T07:05:35.759Z,1.09
2017-12-11T07:06:44.982Z,1.09
2017-12-11T07:07:53.804Z,1.08
2017-12-11T07:09:02.629Z,1.09
2017-12-11T07:10:11.451Z,1.08
2017-12-11T07:11:20.276Z,1.06
2017-12-11T07:12:29.249Z,1.08
2017-12-11T07:13:38.072Z,1.04
2017-12-11T07:14:47.176Z,1.02
2017-12-11T07:15:56.000Z,1.05
2017-12-11T07:17:04.823Z,1.09
2017-12-11T07:18:13.747Z,1.12
2017-12-11T07:19:22.572Z,1.04
2017-12-11T07:20:31.392Z,1.06
2017-12-11T07:21:40.486Z,1.08
2017-12-11T07:22:49.309Z,1.11
2017-12-11T07:23:58.229Z,1.11
2017-12-11T07:25:07.051Z,1.08
2017-12-11T07:26:15.873Z,1.08
2017-12-11T07:27:24.696Z,1.09
2017-12-11T07:28:33.516Z,1.02
2017-12-11T07:29:42.490Z,1.15
2017-12-11T07:30:51.313Z,1.04
2017-12-11T07:32:00.132Z,1.11
2017-12-11T07:33:08.955Z,1.09
2017-12-11T07:34:17.778Z,1.11
2017-12-11T07:35:26.701Z,1.12
2017-12-11T07:36:35.525Z,1.2
2017-12-11T07:37:44.348Z,1.18
2017-12-11T07:38:53.176Z,1.12
2017-12-11T07:40:01.997Z,1.14
2017-12-11T07:41:11.118Z,1.2
2017-12-11T07:42:19.942Z,1.11
2017-12-11T07:43:28.765Z,1.08
2017-12-11T07:44:37.589Z,1.12
2017-12-11T07:45:46.409Z,1.11
2017-12-11T07:46:55.530Z,1.12
2017-12-11T07:48:04.632Z,1.06
2017-12-11T07:49:13.728Z,1.06
2017-12-11T07:50:22.551Z,1.06
2017-12-11T07:51:31.372Z,1.14
2017-12-11T07:52:40.345Z,1.18
2017-12-11T07:53:49.169Z,1.05
2017-12-11T07:54:57.990Z,1.09
2017-12-11T07:56:06.813Z,1.11
2017-12-11T07:57:15.909Z,1.06
2017-12-11T07:58:24.881Z,1.11
2017-12-11T07:59:33.704Z,1.11
2017-12-11T08:00:42.527Z,1.09
2017-12-11T08:01:51.348Z,1.08
2017-12-11T08:03:00.169Z,1.11
2017-12-11T08:04:09.143Z,1.12
2017-12-11T08:05:17.964Z,1.04
2017-12-11T08:06:27.064Z,1.09
2017-12-11T08:07:35.891Z,1.04
2017-12-11T08:08:44.711Z,1.04
2017-12-11T08:09:53.963Z,1.02
2017-12-11T08:11:02.786Z,1.02
2017-12-11T08:12:11.608Z,1.02
2017-12-11T08:13:20.429Z,1.05
2017-12-11T08:14:29.252Z,1.06
2017-12-11T08:15:38.127Z,1.11
2017-12-11T08:16:47.224Z,1.08
2017-12-11T08:17:56.046Z,1.12
2017-12-11T08:19:04.869Z,1.06
2017-12-11T08:20:13.690Z,1.14
2017-12-11T08:21:23.190Z,1.16
2017-12-11T08:22:32.013Z,1.14
2017-12-11T08:23:41.110Z,1.16
2017-12-11T08:24:49.930Z,1.12
2017-12-11T08:25:58.956Z,1.16
2017-12-11T08:27:08.430Z,1.27
2017-12-11T08:28:17.254Z,1.24
2017-12-11T08:29:26.081Z,1.22
2017-12-11T08:30:34.902Z,1.22
2017-12-11T08:31:43.999Z,1.34
2017-12-11T08:32:52.922Z,1.34
2017-12-11T08:34:01.744Z,1.27
2017-12-11T08:35:10.853Z,1.3
2017-12-11T08:36:19.678Z,1.37
2017-12-11T08:37:28.500Z,1.29
2017-12-11T08:38:37.374Z,1.37
2017-12-11T08:39:46.300Z,1.29
2017-12-11T08:40:55.120Z,1.4
2017-12-11T08:42:03.944Z,1.4
2017-12-11T08:43:12.767Z,1.37
2017-12-11T08:44:21.992Z,1.4
2017-12-11T08:45:30.812Z,1.42
2017-12-11T08:46:39.636Z,1.47
2017-12-11T08:47:48.461Z,1.44
2017-12-11T08:48:57.560Z,1.5
2017-12-11T08:50:06.638Z,1.45
2017-12-11T08:51:15.463Z,1.48
2017-12-11T08:52:24.287Z,1.52
2017-12-11T08:53:33.114Z,1.44
2017-12-11T08:54:41.941Z,1.44
2017-12-11T08:55:50.856Z,1.5
2017-12-11T08:56:59.679Z,1.5
2017-12-11T08:58:08.791Z,1.47
2017-12-11T08:59:17.612Z,1.45
2017-12-11T09:00:26.436Z,1.5
2017-12-11T09:01:35.361Z,1.51
2017-12-11T09:02:44.186Z,1.55
2017-12-11T09:03:53.010Z,1.52
2017-12-11T09:05:01.832Z,1.54
2017-12-11T09:06:10.658Z,1.48
2017-12-11T09:07:19.779Z,1.58
2017-12-11T09:08:28.603Z,1.55
2017-12-11T09:09:37.428Z,1.52
2017-12-11T09:10:46.250Z,1.51
2017-12-11T09:11:55.076Z,1.51
2017-12-11T09:13:04.200Z,1.47
2017-12-11T09:14:13.026Z,1.63
2017-12-11T09:15:22.125Z,1.62
2017-12-11T09:16:30.949Z,1.6
2017-12-11T09:17:40.160Z,1.55
2017-12-11T09:18:49.087Z,1.62
2017-12-11T09:19:57.911Z,1.52
2017-12-11T09:21:06.736Z,1.68
2017-12-11T09:22:15.560Z,1.62
2017-12-11T09:23:24.385Z,1.58
2017-12-11T09:24:33.358Z,1.65
2017-12-11T09:25:42.181Z,1.69
2017-12-11T09:26:51.291Z,1.65
2017-12-11T09:28:00.111Z,1.68
2017-12-11T09:29:08.935Z,1.69
2017-12-11T09:30:18.012Z,1.68
2017-12-11T09:31:26.831Z,1.65
2017-12-11T09:32:35.656Z,1.68
2017-12-11T09:33:44.478Z,1.68
2017-12-11T09:34:53.301Z,1.66
2017-12-11T09:36:02.126Z,1.72
2017-12-11T09:37:10.950Z,1.69
2017-12-11T09:38:19.773Z,1.72
2017-12-11T09:39:28.597Z,1.77
2017-12-11T09:40:37.701Z,1.72
2017-12-11T09:41:46.849Z,1.72
2017-12-11T09:42:55.674Z,1.77
2017-12-11T09:44:04.496Z,1.73
2017-12-11T09:45:13.321Z,1.66
2017-12-11T09:46:22.144Z,1.62
2017-12-11T09:47:31.391Z,1.7
2017-12-11T09:48:40.215Z,1.76
2017-12-11T09:49:49.038Z,1.79
2017-12-11T09:50:57.861Z,1.86
2017-12-11T09:52:06.684Z,1.76
2017-12-11T09:53:15.808Z,1.81
2017-12-11T09:54:24.631Z,1.8
2017-12-11T09:55:33.454Z,1.84
2017-12-11T09:56:42.279Z,1.73
2017-12-11T09:57:51.105Z,1.7
2017-12-11T09:59:00.209Z,1.62
2017-12-11T10:00:09.038Z,1.76
2017-12-11T10:01:17.862Z,1.7
2017-12-11T10:02:26.684Z,1.73
2017-12-11T10:03:35.508Z,1.83
2017-12-11T10:04:44.382Z,1.63
2017-12-11T10:05:53.482Z,1.79
2017-12-11T10:07:02.306Z,1.73
2017-12-11T10:08:11.131Z,1.62
2017-12-11T10:09:19.952Z,1.65
2017-12-11T10:10:29.199Z,1.66
2017-12-11T10:11:38.023Z,1.72
2017-12-11T10:12:46.847Z,1.73
2017-12-11T10:13:55.947Z,1.76
2017-12-11T10:15:05.048Z,1.77
2017-12-11T10:16:14.023Z,1.76
2017-12-11T10:17:22.848Z,1.79
2017-12-11T10:18:31.671Z,1.81
2017-12-11T10:19:40.494Z,1.83
2017-12-11T10:20:49.595Z,1.69
2017-12-11T10:21:58.567Z,1.86
2017-12-11T10:23:07.393Z,1.8
2017-12-11T10:24:16.218Z,1.83
2017-12-11T10:25:25.046Z,1.83
2017-12-11T10:26:33.868Z,1.9
2017-12-11T10:27:42.997Z,1.84
2017-12-11T10:28:51.819Z,1.93
2017-12-11T10:30:00.644Z,1.93
2017-12-11T10:31:09.468Z,1.98
2017-12-11T10:32:18.293Z,1.86
2017-12-11T10:33:27.167Z,1.95
2017-12-11T10:34:35.995Z,1.88
2017-12-11T10:35:44.814Z,1.81
2017-12-11T10:36:53.910Z,1.93
2017-12-11T10:38:02.735Z,1.87
2017-12-11T10:39:11.559Z,1.99
2017-12-11T10:40:20.654Z,1.99
2017-12-11T10:41:29.477Z,1.98
2017-12-11T10:42:38.325Z,1.9
2017-12-11T10:43:47.124Z,1.98
2017-12-11T10:44:56.047Z,1.87
2017-12-11T10:46:04.873Z,1.98
2017-12-11T10:47:13.696Z,2
2017-12-11T10:48:22.522Z,1.93
2017-12-11T10:49:31.346Z,2.02
2017-12-11T10:50:40.318Z,2.02
2017-12-11T10:51:49.141Z,1.98
2017-12-11T10:52:57.966Z,1.93
2017-12-11T10:54:06.792Z,1.93
2017-12-11T10:55:15.615Z,1.95
2017-12-11T10:56:24.491Z,1.93
2017-12-11T10:57:33.315Z,1.88
2017-12-11T10:58:42.138Z,1.83
2017-12-11T10:59:50.963Z,1.98
2017-12-11T11:00:59.783Z,1.99
2017-12-11T11:02:09.084Z,1.84
2017-12-11T11:03:17.906Z,1.87
2017-12-11T11:04:26.734Z,1.83
2017-12-11T11:05:35.828Z,1.91
2017-12-11T11:06:44.652Z,1.8
2017-12-11T11:07:53.576Z,1.83
2017-12-11T11:09:02.678Z,1.88
2017-12-11T11:10:11.500Z,1.81
2017-12-11T11:11:20.324Z,1.8
2017-12-11T11:12:29.147Z,1.84
2017-12-11T11:13:38.122Z,1.86
2017-12-11T11:14:47.227Z,1.8
2017-12-11T11:15:56.055Z,1.91
2017-12-11T11:17:04.878Z,1.91
2017-12-11T11:18:13.705Z,1.9
2017-12-11T11:19:22.627Z,1.91
2017-12-11T11:20:31.452Z,1.87
2017-12-11T11:21:40.275Z,1.93
2017-12-11T11:22:49.097Z,1.84
2017-12-11T11:23:58.196Z,2
2017-12-11T11:25:07.324Z,1.76
2017-12-11T11:26:16.143Z,1.86
2017-12-11T11:27:24.965Z,1.83
2017-12-11T11:28:33.789Z,1.81
2017-12-11T11:29:42.614Z,1.9
2017-12-11T11:30:51.590Z,1.99
2017-12-11T11:32:00.410Z,1.84
2017-12-11T11:33:09.233Z,1.93
2017-12-11T11:34:18.056Z,1.93
2017-12-11T11:35:26.879Z,1.83
2017-12-11T11:36:35.851Z,1.84
2017-12-11T11:37:44.676Z,1.86
2017-12-11T11:38:53.499Z,1.81
2017-12-11T11:40:02.598Z,1.81
2017-12-11T11:41:11.421Z,1.81
2017-12-11T11:42:20.295Z,1.76
2017-12-11T11:43:29.118Z,1.8
2017-12-11T11:44:37.942Z,1.84
2017-12-11T11:45:46.766Z,1.8
2017-12-11T11:46:55.593Z,1.81
2017-12-11T11:48:04.567Z,1.9
2017-12-11T11:49:13.391Z,1.87
2017-12-11T11:50:22.215Z,1.99
2017-12-11T11:51:31.317Z,1.98
2017-12-11T11:52:40.140Z,1.93
2017-12-11T11:53:49.012Z,1.88
2017-12-11T11:54:57.839Z,1.8
2017-12-11T11:56:06.662Z,1.9
2017-12-11T11:57:15.486Z,1.81
2017-12-11T11:58:24.309Z,1.91
2017-12-11T11:59:33.238Z,1.88
2017-12-11T12:00:42.059Z,2.02
2017-12-11T12:01:50.882Z,2.06
2017-12-11T12:02:59.706Z,2
2017-12-11T12:04:08.527Z,1.91
2017-12-11T12:05:17.503Z,1.87
2017-12-11T12:06:26.327Z,1.91
2017-12-11T12:07:35.149Z,1.91
2017-12-11T12:08:43.974Z,1.99
2017-12-11T12:09:52.796Z,1.99
2017-12-11T12:11:01.662Z,1.99
2017-12-11T12:12:10.446Z,1.93
2017-12-11T12:13:19.270Z,1.91
2017-12-11T12:14:28.093Z,1.98
2017-12-11T12:15:36.917Z,1.93
2017-12-11T12:16:45.792Z,2
2017-12-11T12:17:54.617Z,2.07
2017-12-11T12:19:03.441Z,2.09
2017-12-11T12:20:12.264Z,2.03
2017-12-11T12:21:21.089Z,1.86
2017-12-11T12:22:30.012Z,1.98
2017-12-11T12:23:38.833Z,1.95
2017-12-11T12:24:47.656Z,1.95
2017-12-11T12:25:56.487Z,1.8
2017-12-11T12:27:05.303Z,1.86
2017-12-11T12:28:14.229Z,1.95
2017-12-11T12:29:23.050Z,1.93
2017-12-11T12:30:31.874Z,2.03
2017-12-11T12:31:40.974Z,1.98
2017-12-11T12:32:49.799Z,1.8
2017-12-11T12:33:58.724Z,1.84
2017-12-11T12:35:07.821Z,1.99
2017-12-11T12:36:16.649Z,1.93
2017-12-11T12:37:25.475Z,2
2017-12-11T12:38:34.297Z,1.88
2017-12-11T12:39:43.271Z,1.83
2017-12-11T12:40:52.365Z,1.93
2017-12-11T12:42:01.190Z,2.03
2017-12-11T12:43:10.014Z,2.02
2017-12-11T12:44:18.835Z,2.07
2017-12-11T12:45:27.960Z,1.99
2017-12-11T12:46:36.785Z,2.1
2017-12-11T12:47:45.884Z,2.07
2017-12-11T12:48:54.982Z,2.09
2017-12-11T12:50:04.083Z,2.09
2017-12-11T12:51:13.154Z,2.02
2017-12-11T12:52:21.978Z,2.03
2017-12-11T12:53:30.805Z,1.99
2017-12-11T12:54:39.629Z,1.98
2017-12-11T12:55:48.453Z,1.98
2017-12-11T12:56:57.429Z,1.99
2017-12-11T12:58:06.545Z,1.99
2017-12-11T12:59:15.653Z,2
2017-12-11T13:00:24.471Z,2.05
2017-12-11T13:01:33.295Z,2.06
2017-12-11T13:02:42.270Z,2.14
2017-12-11T13:03:51.099Z,2.02
2017-12-11T13:04:59.924Z,2.1
2017-12-11T13:06:08.745Z,2.02
2017-12-11T13:07:17.574Z,2
2017-12-11T13:08:26.598Z,1.95
2017-12-11T13:09:35.424Z,1.99
2017-12-11T13:10:44.248Z,1.91
2017-12-11T13:11:53.075Z,1.95
2017-12-11T13:13:02.173Z,2.03
2017-12-11T13:14:11.431Z,2.05
2017-12-11T13:15:20.263Z,1.91
2017-12-11T13:16:29.087Z,1.83
2017-12-11T13:17:38.184Z,1.93
2017-12-11T13:18:47.011Z,1.91
2017-12-11T13:19:55.834Z,1.86
2017-12-11T13:21:04.659Z,1.84
2017-12-11T13:22:13.484Z,1.73
2017-12-11T13:23:22.587Z,1.83
2017-12-11T13:24:31.407Z,1.73
2017-12-11T13:25:40.432Z,1.8
2017-12-11T13:26:49.256Z,1.93
2017-12-11T13:27:58.079Z,1.83
2017-12-11T13:29:07.179Z,1.8
2017-12-11T13:30:16.279Z,1.79
2017-12-11T13:31:25.505Z,1.69
2017-12-11T13:32:34.331Z,1.86
2017-12-11T13:33:43.155Z,1.8
2017-12-11T13:34:51.978Z,1.8
2017-12-11T13:36:00.806Z,1.95
2017-12-11T13:37:09.930Z,1.81
2017-12-11T13:38:18.760Z,1.91
2017-12-11T13:39:27.589Z,1.95
2017-12-11T13:40:36.406Z,1.84
2017-12-11T13:41:45.505Z,1.84
2017-12-11T13:42:54.533Z,1.83
2017-12-11T13:44:03.357Z,1.9
2017-12-11T13:45:12.455Z,1.83
2017-12-11T13:46:21.278Z,1.86
2017-12-11T13:47:30.102Z,1.8
2017-12-11T13:48:39.027Z,1.84
2017-12-11T13:49:47.850Z,1.8
2017-12-11T13:50:56.678Z,1.95
2017-12-11T13:52:05.501Z,1.81
2017-12-11T13:53:14.326Z,1.9
2017-12-11T13:54:23.300Z,1.8
2017-12-11T13:55:32.128Z,1.95
2017-12-11T13:56:40.968Z,1.84
2017-12-11T13:57:49.787Z,1.84
2017-12-11T13:58:58.612Z,1.93
2017-12-11T14:00:07.489Z,1.79
2017-12-11T14:01:16.315Z,1.86
2017-12-11T14:02:25.136Z,1.76
2017-12-11T14:03:33.959Z,1.8
2017-12-11T14:04:42.792Z,1.8
2017-12-11T14:05:51.767Z,1.88
2017-12-11T14:07:00.590Z,1.86
2017-12-11T14:08:09.414Z,1.86
2017-12-11T14:09:18.239Z,1.86
2017-12-11T14:10:27.063Z,1.84
2017-12-11T14:11:35.888Z,1.91
2017-12-11T14:12:44.713Z,1.93
2017-12-11T14:13:53.538Z,1.87
2017-12-11T14:15:02.363Z,1.81
2017-12-11T14:16:11.186Z,1.77
2017-12-11T14:17:20.067Z,1.91
2017-12-11T14:18:29.162Z,1.91
2017-12-11T14:19:38.265Z,1.76
2017-12-11T14:20:47.090Z,1.81
2017-12-11T14:21:55.915Z,1.83
2017-12-11T14:23:05.262Z,1.79
2017-12-11T14:24:14.086Z,1.77
2017-12-11T14:25:22.914Z,1.88
2017-12-11T14:26:31.738Z,1.91
2017-12-11T14:27:41.112Z,2
2017-12-11T14:28:50.136Z,1.84
2017-12-11T14:29:58.960Z,1.84
2017-12-11T14:31:08.064Z,1.87
2017-12-11T14:32:16.888Z,1.86
2017-12-11T14:33:25.712Z,1.93
2017-12-11T14:34:34.537Z,1.81
2017-12-11T14:35:43.633Z,1.83
2017-12-11T14:36:52.459Z,1.9
2017-12-11T14:38:01.283Z,1.9
2017-12-11T14:39:10.378Z,1.76
2017-12-11T14:40:19.502Z,1.79
2017-12-11T14:41:28.325Z,1.8
2017-12-11T14:42:37.151Z,1.81
2017-12-11T14:43:45.975Z,1.63
2017-12-11T14:44:54.798Z,1.7
2017-12-11T14:46:03.622Z,1.69
2017-12-11T14:47:12.444Z,1.62
2017-12-11T14:48:21.266Z,1.6
2017-12-11T14:49:30.090Z,1.55
2017-12-11T14:50:38.916Z,1.68
2017-12-11T14:51:47.739Z,1.66
2017-12-11T14:52:56.562Z,1.62
2017-12-11T14:54:05.386Z,1.65
2017-12-11T14:55:14.210Z,1.65
2017-12-11T14:56:23.034Z,1.69
2017-12-11T14:57:31.906Z,1.68
2017-12-11T14:58:40.727Z,1.7
2017-12-11T14:59:49.549Z,1.59
2017-12-11T15:00:58.649Z,1.51
2017-12-11T15:02:07.472Z,1.6
2017-12-11T15:03:16.346Z,1.63
2017-12-11T15:04:25.173Z,1.5
2017-12-11T15:05:34.027Z,1.47
2017-12-11T15:06:42.814Z,1.48
2017-12-11T15:07:51.645Z,1.54
2017-12-11T15:09:00.715Z,1.52
2017-12-11T15:10:10.085Z,1.63
2017-12-11T15:11:18.908Z,1.58
2017-12-11T15:12:27.739Z,1.42
2017-12-11T15:13:36.562Z,1.45
2017-12-11T15:14:45.387Z,1.51
2017-12-11T15:15:54.217Z,1.58
2017-12-11T15:17:03.330Z,1.47
2017-12-11T15:18:12.151Z,1.47
2017-12-11T15:19:20.975Z,1.66
2017-12-11T15:20:30.322Z,1.65
2017-12-11T15:21:39.229Z,1.59
2017-12-11T15:22:48.440Z,1.47